Alger, OH

5:08 PM EDT on June 02, 2015 (GMT -0400)
Lima Allen County | | Change Station
CLOSE
Current Station
Airport
Location: Lima,
Elevation: 974 ft
Nearby Weather Stations

Elev 974 ft 40.71 °N, 84.03 °W | Updated 15 minutes ago

Mostly Cloudy
Mostly Cloudy
67 °F
Feels Like 67 °F
N
12
Wind Variable Wind from ENE

Today
High -- | Low -- °F
--% Chance of Precip.
Yesterday
High -- | Low -- °F
Precip. -- in
6:06 AM 9:00 PM
Full, 100% visible
Pressure 30.10 in
Visibility 10.0 miles
Clouds Few 3400 ft
Dew Point 53 °F
Humidity 61%
Rainfall 0.00 in
Snow Depth Not available.
UV 6 out of 12
Pollen 7.40 out of 12
Air Quality Not available.
Flu Activity Sporadic
METAR KAOH 022053Z AUTO 06010KT 10SM FEW034 19/12 A3009 RMK AO2 SLP191 T01940117 58021

More Conditions Fewer Conditions

Pressure 30.10 in
Visibility 10.0 miles
Clouds Few 3400 ft
Dew Point 53 °F
Humidity 61%
Rainfall 0.00 in
Snow Depth Not available.
UV 6 out of 12
Pollen 7.40 out of 12
Air Quality Not available.
Flu Activity Sporadic
METAR KAOH 022053Z AUTO 06010KT 10SM FEW034 19/12 A3009 RMK AO2 SLP191 T01940117 58021

More Conditions Fewer Conditions

10-Day Weather Forecast

×

Almanac

Astronomy

Jun. 02, 2015 Rise Set
Actual Time
Civil Twilight
Nautical Twilight
Astronomical Twilight
Moon
Length of Visible Light
Length of Day
Tomorrow will be .
, % of the Moon is Illuminated

Today's Extremes

State Highs State Lows

Community

WunderPhotos

Upload Photos

1,826,034 photos uploaded!

WunderBlogs® & News

Nearby

Air Quality

  Air Quality AQ Index Pollutant
Not available.

Snow Depth

Station Depth Elevation

Earthquake Activity

City Distance Mag. Time & Date
Minimum magnitude displayed is 2.5.

Coastal Water Temperatures

Place Temperature

Stations

Nearby Weather Stations

Station Location Temp. Windchill Dew Point Humidity Wind Precip. Elev Updated Type